KBUF/BUF METAR and TAF weather

Enter ICAO airport designator
Station Type Date Time Source
KBUF METAR 2020/12/05 05:54 UTC NOAA

KBUF 050554Z 29004KT 9SM OVC039 03/01 A2988 RMK AO2 SLP125 60000 T00330006 10033 20028 58003


Station Type Date Time Source
KBUF Decoded METAR 2020/12/05 05:54 UTC NOAA

GREATER BUFFALO INTERNATIONAL AIRPORT , NY, United States (KBUF) 42-56N 078-44W 225M
Dec 05, 2020 - 12:54 AM EST / 2020.12.05 0554 UTC
Wind: from the WNW (290 degrees) at 5 MPH (4 KT):0
Visibility: 9 mile(s):0
Sky conditions: overcast
Temperature: 37.9 F (3.3 C)
Dew Point: 33.1 F (0.6 C)
Relative Humidity: 82%
Pressure (altimeter): 29.88 in. Hg (1011 hPa)
Pressure tendency: 0.01 inches (0.3 hPa) lower than three hours ago
ob: KBUF 050554Z 29004KT 9SM OVC039 03/01 A2988 RMK AO2 SLP125 60000 T00330006 10033 20028 58003
cycle: 6

Station Type Date Time Source
KBUF TAF 2020/12/05 06:42 UTC NOAA

TAF KBUF 050540Z 0506/0606 24003KT P6SM OVC025
FM050900 34005KT P6SM BKN020
FM051000 34006KT P6SM OVC015

Example: see airport list